• Join FlightAware (Why Join?)
  • Login
  • US Flag 
08:03PM EDT


 

Airport Tracker/Info


-or-


 

Live Flight TrackerFlight Track Log ✈ UAL33 ✈ 18-Aug-2013 ✈ RJAA / NRT - KLAX

Flight Track Log - Related Links

Times and Time Zones

All times are in EDT time to prevent confusion due to time zone crossing. See the UAL33 flight status page for this flight to view local times or setup timezone preferences in your user account.

Time Position Orientation Groundspeed Altitude Reporting Facility
EDT Latitude Longitude Course Direction KTS MPH feet Rate Location/Type
04:59AM 35.7450 140.3900 148° Southeast 158 182 1,300  Level FlightAware
05:00AM 35.7320 140.3990 151° Southeast 160 184 2,100 1,980 Climbing FlightAware
05:00AM 35.7210 140.4070 149° Southeast 170 196 2,500 1,620 Climbing FlightAware
05:00AM 35.7080 140.4160 151° Southeast 174 200 3,100 1,800 Climbing FlightAware
05:01AM 35.6940 140.4260 150° Southeast 177 204 3,700 1,200 Climbing FlightAware
05:01AM 35.6750 140.4400 149° Southeast 210 242 4,000 780 Climbing FlightAware
05:01AM 35.6580 140.4520 150° Southeast 238 274 4,300 1,140 Climbing FlightAware
05:01AM 35.6460 140.4600 152° Southeast 247 284 4,600 1,380 Climbing FlightAware
05:02AM 35.6270 140.4740 149° Southeast 268 308 5,000 2,100 Climbing FlightAware
05:02AM 35.5990 140.4950 149° Southeast 274 315 6,200 2,520 Climbing FlightAware
05:03AM 35.5760 140.5110 150° Southeast 280 322 7,000 2,520 Climbing FlightAware
05:03AM 35.5530 140.5280 149° Southeast 283 326 7,900 2,400 Climbing FlightAware
05:03AM 35.5300 140.5440 150° Southeast 289 333 8,600 1,620 Climbing FlightAware
05:04AM 35.5030 140.5640 149° Southeast 294 338 9,100 660 Climbing FlightAware
05:04AM 35.4800 140.5850 143° Southeast 300 345 9,100 180 Level FlightAware
05:04AM 35.4730 140.5960 128° Southeast 301 346 9,200 360 Climbing FlightAware
05:04AM 35.4680 140.6080 117° Southeast 302 348 9,200 -240 Level FlightAware
05:05AM 35.4600 140.6410 107° East 307 353 9,100 -120 Descending FlightAware
05:05AM 35.4620 140.6960 87° East 307 353 9,100  Level FlightAware
05:05AM 35.4660 140.7370 83° East 305 351 9,100 240 Level FlightAware
05:06AM 35.4680 140.7700 86° East 308 354 9,300 1,140 Climbing FlightAware
05:06AM 35.4700 140.7910 83° East 309 356 9,700 1,680 Climbing FlightAware
05:07AM 35.4760 140.8730 85° East 340 391 10,900 1,440 Climbing FlightAware
05:07AM 35.4800 140.9310 85° East 368 423 11,500 1,320 Climbing FlightAware
05:08AM 35.4850 141.0080 85° East 394 453 12,400 1,860 Climbing FlightAware
05:08AM 35.4880 141.0950 88° East 405 466 13,900 2,100 Climbing FlightAware
05:09AM 35.4680 141.1780 106° East 413 475 15,200 2,160 Climbing FlightAware
05:10AM 35.4410 141.2660 111° Southeast 423 487 16,600 2,160 Climbing FlightAware
05:10AM 35.4250 141.3170 111° Southeast 427 491 17,400 1,920 Climbing FlightAware
05:11AM 35.3960 141.4130 110° East 433 498 18,700 1,500 Climbing FlightAware
05:11AM 35.3690 141.5020 110° East 456 525 19,400 1,500 Climbing FlightAware
05:12AM 35.3400 141.5940 111° Southeast 461 531 20,600 1,620 Climbing FlightAware
05:13AM 35.3150 141.6760 110° East 468 539 21,300 1,260 Climbing FlightAware
05:13AM 35.2860 141.7690 111° Southeast 479 551 22,100 1,320 Climbing FlightAware
05:14AM 35.2580 141.8590 111° Southeast 486 559 22,900 1,320 Climbing FlightAware
05:14AM 35.2500 141.8970 104° East 489 563 23,200 1,320 Climbing FlightAware
05:15AM 35.2540 141.9810 87° East 492 566 23,900 1,260 Climbing FlightAware
05:15AM 35.2870 142.1020 71° East 500 575 24,800 1,260 Climbing FlightAware
05:16AM 35.3120 142.1960 72° East 508 585 25,600 1,260 Climbing FlightAware
05:16AM 35.3370 142.2880 72° East 513 590 26,300 1,200 Climbing FlightAware
05:17AM 35.3640 142.3890 72° East 517 595 27,000 1,080 Climbing FlightAware
05:18AM 35.4010 142.5280 72° East 523 602 27,900 1,140 Climbing FlightAware
05:19AM 35.4390 142.6690 72° East 525 604 28,900 1,320 Climbing FlightAware
05:19AM 35.4660 142.7710 72° East 522 601 29,800 1,440 Climbing FlightAware
05:20AM 35.4950 142.8810 72° East 519 597 30,700 1,200 Climbing FlightAware
05:21AM 35.5230 142.9880 72° East 519 597 31,400 840 Climbing FlightAware
05:21AM 35.5520 143.1020 73° East 512 589 31,900 360 Climbing FlightAware
05:22AM 35.5740 143.1890 73° East 512 589 31,900  Level FlightAware
05:23AM 35.5950 143.2750 73° East 512 589 31,900 2,760 Level FlightAware
05:23AM 35.6270 143.3890 71° East 493 567 35,100 3,540 Climbing FlightAware
05:24AM 35.6510 143.4810 72° East 492 566 35,700 1,080 Climbing FlightAware
05:24AM 35.6730 143.5690 73° East 488 562 36,300 480 Climbing FlightAware
05:25AM 35.6960 143.6560 72° East 488 562 36,300 480 Level FlightAware
05:26AM 35.7270 143.7780 73° East 485 558 37,000 420 Climbing FlightAware
05:26AM 35.7570 143.8950 72° East 484 557 37,000  Level FlightAware
05:27AM 35.7820 143.9950 73° East 485 558 37,000  Level FlightAware
05:28AM 35.8070 144.0970 73° East 484 557 37,000  Level FlightAware
05:28AM 35.8310 144.1860 72° East 484 557 37,000  Level FlightAware
05:29AM 35.8640 144.3230 73° East 482 555 37,000  Level FlightAware
05:30AM 35.8900 144.4280 73° East 481 554 37,000  Level FlightAware
05:30AM 35.9100 144.5160 74° East 481 554 37,000  Level FlightAware
05:31AM 35.9350 144.6230 74° East 481 554 37,000  Level FlightAware
05:32AM 35.9550 144.7060 73° East 481 554 37,000  Level FlightAware
05:32AM 35.9910 144.8370 71° East 483 556 37,000  Level FlightAware
05:33AM 36.0160 144.9430 74° East 482 555 37,000  Level FlightAware
05:34AM 36.0390 145.0390 73° East 482 555 37,000  Level FlightAware
05:34AM 36.0580 145.1220 74° East 482 555 37,000  Level FlightAware
05:35AM 36.0770 145.2030 74° East 482 555 37,000  Level FlightAware
05:35AM 36.0960 145.2870 74° East 482 555 37,000  Level FlightAware
05:36AM 36.1150 145.3680 74° East 482 555 37,000  Level FlightAware
05:37AM 36.1340 145.4490 74° East 482 555 37,000  Level FlightAware
05:37AM 36.1530 145.5310 74° East 482 555 37,000  Level FlightAware
05:38AM 36.1980 145.7340 75° East 486 559 37,000  Level FlightAware
05:38AM 36.2150 145.8160 76° East 486 559 37,000  Level FlightAware
05:39AM 36.2310 145.8990 77° East 486 559 37,000  Level FlightAware
05:40AM 36.2480 145.9820 76° East 486 559 37,000  Level FlightAware
05:40AM 36.2650 146.0640 76° East 486 559 37,000  Level FlightAware
05:41AM 36.2820 146.1490 76° East 486 559 37,000  Level FlightAware
05:41AM 36.2970 146.2280 77° East 486 559 37,000  Level FlightAware
05:42AM 36.3140 146.3110 76° East 486 559 37,000  Level FlightAware
05:43AM 36.3310 146.3930 76° East 486 559 37,000  Level FlightAware
05:43AM 36.3480 146.4790 76° East 486 559 37,000  Level FlightAware
05:44AM 36.3640 146.5620 77° East 486 559 37,000  Level FlightAware
05:44AM 36.3810 146.6440 76° East 486 559 37,000  Level FlightAware
05:45AM 36.3980 146.7270 76° East 486 559 37,000  Level FlightAware
05:46AM 36.4140 146.8100 77° East 486 559 37,000  Level FlightAware
05:46AM 36.4310 146.8960 76° East 486 559 37,000  Level FlightAware
05:47AM 36.4480 146.9790 76° East 486 559 37,000  Level FlightAware
05:47AM 36.4650 147.0620 76° East 486 559 37,000  Level FlightAware
05:50AM 36.6114 147.3720 59° Northeast  Level Estimated
05:51AM 36.6820 147.5224 60° Northeast  Level Estimated
05:52AM 36.7523 147.6730 60° Northeast  Level Estimated
05:53AM 36.8225 147.8240 60° Northeast  Level Estimated
05:54AM 36.8925 147.9752 60° Northeast  Level Estimated
05:55AM 36.9623 148.1267 60° Northeast  Level Estimated
05:56AM 37.0319 148.2785 60° Northeast  Level Estimated
05:57AM 37.1013 148.4306 60° Northeast  Level Estimated
05:58AM 37.1705 148.5829 60° Northeast  Level Estimated
05:59AM 37.2395 148.7355 60° Northeast  Level Estimated
06:00AM 37.3083 148.8884 60° Northeast  Level Estimated
06:01AM 37.3769 149.0416 61° Northeast  Level Estimated
06:02AM 37.4453 149.1951 61° Northeast  Level Estimated
06:03AM 37.5136 149.3488 61° Northeast  Level Estimated
06:04AM 37.5816 149.5028 61° Northeast  Level Estimated
06:05AM 37.6494 149.6571 61° Northeast  Level Estimated
06:06AM 37.7170 149.8117 61° Northeast  Level Estimated
06:07AM 37.7844 149.9666 61° Northeast  Level Estimated
06:08AM 37.8517 150.1217 61° Northeast  Level Estimated
06:09AM 37.9187 150.2772 61° Northeast  Level Estimated
06:10AM 37.9855 150.4329 61° Northeast  Level Estimated
06:11AM 38.0521 150.5889 61° Northeast  Level Estimated
06:12AM 38.1185 150.7451 62° Northeast  Level Estimated
06:13AM 38.1847 150.9017 62° Northeast  Level Estimated
06:14AM 38.2506 151.0586 62° Northeast  Level Estimated
06:15AM 38.3164 151.2157 62° Northeast  Level Estimated
06:16AM 38.3820 151.3731 62° Northeast  Level Estimated
06:17AM 38.4473 151.5308 62° Northeast  Level Estimated
06:18AM 38.5125 151.6888 62° Northeast  Level Estimated
06:19AM 38.5774 151.8471 62° Northeast  Level Estimated
06:20AM 38.6421 152.0056 62° Northeast  Level Estimated
06:21AM 38.7066 152.1645 62° Northeast  Level Estimated
06:22AM 38.7709 152.3236 63° Northeast  Level Estimated
06:23AM 38.8350 152.4830 63° Northeast  Level Estimated
06:24AM 38.8988 152.6427 63° Northeast  Level Estimated
06:25AM 38.9624 152.8027 63° Northeast  Level Estimated
06:26AM 39.0258 152.9630 63° Northeast  Level Estimated
06:27AM 39.0890 153.1236 63° Northeast  Level Estimated
06:28AM 39.1520 153.2844 63° Northeast  Level Estimated
06:29AM 39.2148 153.4456 63° Northeast  Level Estimated
06:30AM 39.2773 153.6070 63° Northeast  Level Estimated
06:31AM 39.3396 153.7687 63° Northeast  Level Estimated
06:32AM 39.4131 153.9605 64° Northeast  Level Estimated
06:33AM 39.4862 154.1527 64° Northeast  Level Estimated
06:34AM 39.5590 154.3453 64° Northeast  Level Estimated
06:35AM 39.6315 154.5383 64° Northeast  Level Estimated
06:36AM 39.7037 154.7318 64° Northeast  Level Estimated
06:37AM 39.7756 154.9256 64° Northeast  Level Estimated
06:38AM 39.8472 155.1198 64° Northeast  Level Estimated
06:39AM 39.9184 155.3145 64° Northeast  Level Estimated
06:40AM 39.9893 155.5095 65° Northeast  Level Estimated
06:41AM 40.0598 155.7049 65° Northeast  Level Estimated
06:42AM 40.1301 155.9008 65° Northeast  Level Estimated
06:43AM 40.2000 156.0970 65° Northeast  Level Estimated
06:44AM 40.2696 156.2937 65° Northeast  Level Estimated
06:45AM 40.3388 156.4907 65° Northeast  Level Estimated
06:46AM 40.4077 156.6882 65° Northeast  Level Estimated
06:47AM 40.4763 156.8860 65° Northeast  Level Estimated
06:48AM 40.5445 157.0843 66° East  Level Estimated
06:49AM 40.6124 157.2830 66° East  Level Estimated
06:50AM 40.6800 157.4820 66° East  Level Estimated
06:51AM 40.7472 157.6815 66° East  Level Estimated
06:52AM 40.8140 157.8814 66° East  Level Estimated
06:53AM 40.8806 158.0817 66° East  Level Estimated
06:54AM 40.9467 158.2824 66° East  Level Estimated
06:55AM 41.0126 158.4834 66° East  Level Estimated
06:56AM 41.0780 158.6849 67° East  Level Estimated
06:57AM 41.1432 158.8868 67° East  Level Estimated
06:58AM 41.2079 159.0891 67° East  Level Estimated
06:59AM 41.2723 159.2918 67° East  Level Estimated
07:00AM 41.3364 159.4949 67° East  Level Estimated
07:01AM 41.3900 159.6658 67° East  Level Estimated
07:02AM 41.4433 159.8371 67° East  Level Estimated
07:03AM 41.4963 160.0086 68° East  Level Estimated
07:04AM 41.5491 160.1804 68° East  Level Estimated
07:05AM 41.6016 160.3525 68° East  Level Estimated
07:06AM 41.6539 160.5249 68° East  Level Estimated
07:07AM 41.7059 160.6975 68° East  Level Estimated
07:08AM 41.7577 160.8705 68° East  Level Estimated
07:09AM 41.8092 161.0437 68° East  Level Estimated
07:10AM 41.8604 161.2172 68° East  Level Estimated
07:11AM 41.9114 161.3909 68° East  Level Estimated
07:12AM 41.9621 161.5650 69° East  Level Estimated
07:13AM 42.0126 161.7393 69° East  Level Estimated
07:14AM 42.0628 161.9139 69° East  Level Estimated
07:15AM 42.1127 162.0888 69° East  Level Estimated
07:16AM 42.1624 162.2639 69° East  Level Estimated
07:17AM 42.2118 162.4393 69° East  Level Estimated
07:18AM 42.2609 162.6150 69° East  Level Estimated
07:19AM 42.3097 162.7910 69° East  Level Estimated
07:20AM 42.3583 162.9672 69° East  Level Estimated
07:21AM 42.4067 163.1438 70° East  Level Estimated
07:22AM 42.4547 163.3205 70° East  Level Estimated
07:23AM 42.5025 163.4976 70° East  Level Estimated
07:24AM 42.5500 163.6749 70° East  Level Estimated
07:25AM 42.5972 163.8525 70° East  Level Estimated
07:26AM 42.6442 164.0303 70° East  Level Estimated
07:27AM 42.6908 164.2085 70° East  Level Estimated
07:28AM 42.7372 164.3869 70° East  Level Estimated
07:29AM 42.7834 164.5655 71° East  Level Estimated
07:30AM 42.8292 164.7445 71° East  Level Estimated
07:31AM 42.8748 164.9237 71° East  Level Estimated
07:32AM 42.9201 165.1031 71° East  Level Estimated
07:33AM 42.9651 165.2828 71° East  Level Estimated
07:34AM 43.0098 165.4628 71° East  Level Estimated
07:35AM 43.0542 165.6431 71° East  Level Estimated
07:36AM 43.0984 165.8236 71° East  Level Estimated
07:37AM 43.1423 166.0043 72° East  Level Estimated
07:38AM 43.1858 166.1854 72° East  Level Estimated
07:38AM 40.0500 164.6500 75° East 530 610 39,000  Level Oakland Oceanic (ODAPS)
07:39AM 43.2291 166.3666 72° East  Level Estimated
07:40AM 43.2722 166.5482 72° East  Level Estimated
07:40AM 40.0500 164.6500 75° East 530 610 39,000  Level Oakland Oceanic (ODAPS)
07:41AM 43.3149 166.7300 72° East  Level Estimated
07:42AM 43.3573 166.9120 72° East  Level Estimated
07:43AM 43.3995 167.0943 72° East  Level Estimated
07:44AM 40.4730 166.8453 77° East 530 610 39,000  Level FlightAware Transoceanic
07:45AM 40.5064 167.0294 77° East 530 610 39,000  Level FlightAware Transoceanic
07:46AM 40.5394 167.2138 77° East 530 610 39,000  Level FlightAware Transoceanic
07:47AM 40.5722 167.3983 77° East 530 610 39,000  Level FlightAware Transoceanic
07:48AM 40.6047 167.5830 77° East 530 610 39,000  Level FlightAware Transoceanic
07:48AM 40.5333 167.2333 77° East 525 604 39,000  Level Oakland Oceanic (ODAPS)
07:49AM 40.6369 167.7679 77° East 530 610 39,000  Level FlightAware Transoceanic
07:50AM 40.6688 167.9530 77° East 530 610 39,000  Level FlightAware Transoceanic
07:51AM 40.7004 168.1382 77° East 530 610 39,000  Level FlightAware Transoceanic
07:52AM 40.7317 168.3236 78° East 530 610 39,000  Level FlightAware Transoceanic
07:53AM 40.7627 168.5092 78° East 530 610 39,000  Level FlightAware Transoceanic
07:54AM 40.7905 168.7041 78° East 525 604 39,000  Level FlightAware Transoceanic
07:55AM 40.8213 168.8887 78° East 525 604 39,000  Level FlightAware Transoceanic
07:56AM 40.8518 169.0735 78° East 525 604 39,000  Level FlightAware Transoceanic
07:57AM 40.8820 169.2585 78° East 525 604 39,000  Level FlightAware Transoceanic
07:58AM 40.9120 169.4436 78° East 525 604 39,000  Level FlightAware Transoceanic
07:59AM 40.9416 169.6289 78° East 525 604 39,000  Level FlightAware Transoceanic
08:00AM 40.9710 169.8144 78° East 525 604 39,000  Level FlightAware Transoceanic
08:01AM 41.0000 170.0000 72° East 525 604 39,000  Level FlightAware Transoceanic
08:01AM 40.9667 169.8000 77° East 514 592 39,000  Level Oakland Oceanic (ODAPS)
08:02AM 41.0456 170.1826 72° East 525 604 39,000  Level FlightAware Transoceanic
08:02AM 41.0500 170.1833 72° East 523 602 39,000  Level Oakland Oceanic (ODAPS)
08:03AM 41.0909 170.3654 72° East 525 604 39,000  Level FlightAware Transoceanic
08:04AM 41.1359 170.5485 72° East 525 604 39,000  Level FlightAware Transoceanic
08:05AM 41.1807 170.7319 72° East 525 604 39,000  Level FlightAware Transoceanic
08:06AM 41.2251 170.9155 72° East 525 604 39,000  Level FlightAware Transoceanic
08:07AM 41.2693 171.0993 72° East 514 592 39,000  Level FlightAware Transoceanic
08:08AM 41.3170 171.2841 72° East 523 602 39,000  Level FlightAware Transoceanic
08:09AM 41.3605 171.4684 73° East 523 602 39,000  Level FlightAware Transoceanic
08:10AM 41.4037 171.6530 73° East 523 602 39,000  Level FlightAware Transoceanic
08:11AM 41.4466 171.8378 73° East 523 602 39,000  Level FlightAware Transoceanic
08:12AM 41.4892 172.0229 73° East 523 602 39,000  Level FlightAware Transoceanic
08:13AM 41.5314 172.2082 73° East 523 602 39,000  Level FlightAware Transoceanic
08:14AM 41.5734 172.3938 73° East 523 602 39,000  Level FlightAware Transoceanic
08:14AM 41.5500 172.3333 73° East 520 598 39,000  Level Oakland Oceanic (ODAPS)
08:15AM 41.6151 172.5795 73° East 523 602 39,000  Level FlightAware Transoceanic
08:16AM 41.6565 172.7656 73° East 523 602 39,000  Level FlightAware Transoceanic
08:17AM 41.6976 172.9518 74° East 523 602 39,000  Level FlightAware Transoceanic
08:18AM 41.7384 173.1384 74° East 523 602 39,000  Level FlightAware Transoceanic
08:19AM 41.7789 173.3251 74° East 523 602 39,000  Level FlightAware Transoceanic
08:20AM 41.7997 173.4602 74° East 520 598 39,000  Level FlightAware Transoceanic
08:21AM 41.8402 173.6488 74° East 520 598 39,000  Level FlightAware Transoceanic
08:22AM 41.8805 173.8377 74° East 520 598 39,000  Level FlightAware Transoceanic
08:23AM 41.9204 174.0268 74° East 520 598 39,000  Level FlightAware Transoceanic
08:24AM 41.9600 174.2162 74° East 520 598 39,000  Level FlightAware Transoceanic
08:25AM 41.9993 174.4058 74° East 520 598 39,000  Level FlightAware Transoceanic
08:26AM 42.0383 174.5956 75° East 520 598 39,000  Level FlightAware Transoceanic
08:27AM 42.0770 174.7857 75° East 520 598 39,000  Level FlightAware Transoceanic
08:27AM 42.1167 174.9333 75° East 529 609 39,000  Level Oakland Oceanic (ODAPS)
08:28AM 42.1153 174.9760 75° East 520 598 39,000  Level FlightAware Transoceanic
08:29AM 42.1534 175.1665 75° East 520 598 39,000  Level FlightAware Transoceanic
08:30AM 42.1911 175.3572 75° East 520 598 39,000  Level FlightAware Transoceanic
08:31AM 42.2285 175.5482 75° East 520 598 39,000  Level FlightAware Transoceanic
08:32AM 42.2656 175.7394 75° East 520 598 39,000  Level FlightAware Transoceanic
08:33AM 42.3024 175.9308 76° East 520 598 39,000  Level FlightAware Transoceanic
08:34AM 42.3402 176.0896 76° East 529 609 39,000  Level FlightAware Transoceanic
08:35AM 42.3764 176.2831 76° East 529 609 39,000  Level FlightAware Transoceanic
08:36AM 42.4122 176.4768 76° East 529 609 39,000  Level FlightAware Transoceanic
08:37AM 42.4476 176.6708 76° East 529 609 39,000  Level FlightAware Transoceanic
08:38AM 42.4828 176.8649 76° East 529 609 39,000  Level FlightAware Transoceanic
08:39AM 42.5176 177.0593 76° East 529 609 39,000  Level FlightAware Transoceanic
08:40AM 42.5521 177.2539 77° East 529 609 39,000  Level FlightAware Transoceanic
08:41AM 42.5862 177.4487 77° East 529 609 39,000  Level FlightAware Transoceanic
08:41AM 42.6000 177.5667 77° East 514 592 39,000  Level Oakland Oceanic (ODAPS)
08:42AM 42.6201 177.6438 77° East 529 609 39,000  Level FlightAware Transoceanic
08:43AM 42.6536 177.8390 77° East 529 609 39,000  Level FlightAware Transoceanic
08:44AM 42.6867 178.0344 77° East 529 609 39,000  Level FlightAware Transoceanic
08:45AM 42.7196 178.2301 77° East 529 609 39,000  Level FlightAware Transoceanic
08:46AM 42.7521 178.4259 77° East 529 609 39,000  Level FlightAware Transoceanic
08:47AM 42.7842 178.6220 77° East 529 609 39,000  Level FlightAware Transoceanic
08:48AM 42.8064 178.7794 77° East 514 592 39,000  Level FlightAware Transoceanic
08:49AM 42.8396 178.9823 78° East 514 592 39,000  Level FlightAware Transoceanic
08:50AM 42.8724 179.1854 78° East 514 592 39,000  Level FlightAware Transoceanic
08:51AM 42.9048 179.3887 78° East 514 592 39,000  Level FlightAware Transoceanic
08:52AM 42.9369 179.5923 78° East 514 592 39,000  Level FlightAware Transoceanic
08:53AM 42.9686 179.7960 78° East 514 592 39,000  Level FlightAware Transoceanic
08:54AM 43.0000 -180.0000 87° East 514 592 39,000  Level FlightAware Transoceanic
08:54AM 43.0000 180.0000 87° East 536 617 39,000  Level Oakland Oceanic (ODAPS)
08:55AM 43.0087 -179.7964 87° East 514 592 39,000  Level FlightAware Transoceanic
08:55AM 43.0167 -179.7667 87° East 543 625 39,000  Level Oakland Oceanic (ODAPS)
08:56AM 43.0171 -179.5927 87° East 514 592 39,000  Level FlightAware Transoceanic
08:57AM 43.0250 -179.3889 87° East 514 592 39,000  Level FlightAware Transoceanic
08:58AM 43.0326 -179.1852 87° East 514 592 39,000  Level FlightAware Transoceanic
08:59AM 43.0399 -178.9813 87° East 514 592 39,000  Level FlightAware Transoceanic
09:00AM 43.0460 -178.8019 87° East 536 617 39,000  Level FlightAware Transoceanic
09:01AM 43.0544 -178.7291 88° East 543 625 39,000  Level FlightAware Transoceanic
09:02AM 43.0608 -178.5214 88° East 543 625 39,000  Level FlightAware Transoceanic
09:03AM 43.0669 -178.3137 88° East 543 625 39,000  Level FlightAware Transoceanic
09:04AM 43.0725 -178.1059 88° East 543 625 39,000  Level FlightAware Transoceanic
09:05AM 43.0778 -177.8981 88° East 543 625 39,000  Level FlightAware Transoceanic
09:06AM 43.0827 -177.6903 88° East 543 625 39,000  Level FlightAware Transoceanic
09:07AM 43.0873 -177.4825 88° East 543 625 39,000  Level FlightAware Transoceanic
09:08AM 43.0914 -177.2746 88° East 543 625 39,000  Level FlightAware Transoceanic
09:09AM 43.0952 -177.0667 89° East 543 625 39,000  Level FlightAware Transoceanic
09:09AM 43.1000 -176.9167 89° East 551 634 39,000  Level Oakland Oceanic (ODAPS)
09:10AM 43.0987 -176.8588 89° East 543 625 39,000  Level FlightAware Transoceanic
09:11AM 43.1017 -176.6508 89° East 543 625 39,000  Level FlightAware Transoceanic
09:12AM 43.1043 -176.4428 89° East 543 625 39,000  Level FlightAware Transoceanic
09:13AM 43.1066 -176.2348 89° East 543 625 39,000  Level FlightAware Transoceanic
09:14AM 43.1085 -176.0268 89° East 543 625 39,000  Level FlightAware Transoceanic
09:15AM 43.1127 -175.6952 90° East 551 634 39,000  Level FlightAware Transoceanic
09:16AM 43.1135 -175.4916 90° East 551 634 39,000  Level FlightAware Transoceanic
09:17AM 43.1140 -175.2879 90° East 551 634 39,000  Level FlightAware Transoceanic
09:18AM 43.1141 -175.0843 90° East 551 634 39,000  Level FlightAware Transoceanic
09:19AM 43.1139 -174.8807 90° East 551 634 39,000  Level FlightAware Transoceanic
09:20AM 43.1133 -174.6771 90° East 551 634 39,000  Level FlightAware Transoceanic
09:21AM 43.1123 -174.4734 90° East 551 634 39,000  Level FlightAware Transoceanic
09:22AM 43.1110 -174.2698 91° East 551 634 39,000  Level FlightAware Transoceanic
09:23AM 43.1093 -174.0662 91° East 551 634 39,000  Level FlightAware Transoceanic
09:23AM 43.1000 -173.9833 91° East 566 651 39,000  Level Oakland Oceanic (ODAPS)
09:24AM 43.1073 -173.8626 91° East 551 634 39,000  Level FlightAware Transoceanic
09:25AM 43.1049 -173.6591 91° East 551 634 39,000  Level FlightAware Transoceanic
09:26AM 43.1021 -173.4555 91° East 551 634 39,000  Level FlightAware Transoceanic
09:27AM 43.0990 -173.2520 91° East 551 634 39,000  Level FlightAware Transoceanic
09:28AM 43.0955 -173.0485 91° East 551 634 39,000  Level FlightAware Transoceanic
09:29AM 43.0834 -172.7242 91° East 566 651 39,000  Level FlightAware Transoceanic
09:30AM 43.0792 -172.5144 92° East 566 651 39,000  Level FlightAware Transoceanic
09:31AM 43.0747 -172.3046 92° East 566 651 39,000  Level FlightAware Transoceanic
09:32AM 43.0699 -172.0949 92° East 566 651 39,000  Level FlightAware Transoceanic
09:33AM 43.0646 -171.8852 92° East 566 651 39,000  Level FlightAware Transoceanic
09:34AM 43.0589 -171.6756 92° East 566 651 39,000  Level FlightAware Transoceanic
09:35AM 43.0529 -171.4659 92° East 566 651 39,000  Level FlightAware Transoceanic
09:36AM 43.0465 -171.2564 92° East 566 651 39,000  Level FlightAware Transoceanic
09:37AM 43.0397 -171.0468 93° East 566 651 39,000  Level FlightAware Transoceanic
09:37AM 43.0333 -170.9667 92° East 574 661 39,000  Level Oakland Oceanic (ODAPS)
09:38AM 43.0325 -170.8374 93° East 566 651 39,000  Level FlightAware Transoceanic
09:39AM 43.0250 -170.6279 93° East 566 651 39,000  Level FlightAware Transoceanic
09:40AM 43.0170 -170.4186 93° East 566 651 39,000  Level FlightAware Transoceanic
09:41AM 43.0087 -170.2093 93° East 566 651 39,000  Level FlightAware Transoceanic
09:41AM 43.0000 -170.0000 79° East 570 656 39,000  Level Oakland Oceanic (ODAPS)
09:42AM 43.0000 -170.0000 79° East 566 651 39,000  Level FlightAware Transoceanic
09:43AM 43.0309 -169.7866 79° East 574 661 39,000  Level FlightAware Transoceanic
09:44AM 43.0614 -169.5729 79° East 574 661 39,000  Level FlightAware Transoceanic
09:45AM 43.0915 -169.3591 79° East 574 661 39,000  Level FlightAware Transoceanic
09:46AM 43.1213 -169.1450 79° East 574 661 39,000  Level FlightAware Transoceanic
09:47AM 43.1506 -168.9308 79° East 574 661 39,000  Level FlightAware Transoceanic
09:48AM 43.1795 -168.7163 80° East 570 656 39,000  Level FlightAware Transoceanic
09:49AM 43.2080 -168.5016 80° East 570 656 39,000  Level FlightAware Transoceanic
09:50AM 43.2361 -168.2868 80° East 570 656 39,000  Level FlightAware Transoceanic
09:51AM 43.2638 -168.0717 80° East 570 656 39,000  Level FlightAware Transoceanic
09:51AM 43.2667 -167.9833 80° East 579 666 39,000  Level Oakland Oceanic (ODAPS)
09:52AM 43.2911 -167.8564 80° East 570 656 39,000  Level FlightAware Transoceanic
09:53AM 43.3180 -167.6410 80° East 570 656 39,000  Level FlightAware Transoceanic
09:54AM 43.3445 -167.4253 80° East 570 656 39,000  Level FlightAware Transoceanic
09:55AM 43.3706 -167.2095 81° East 570 656 39,000  Level FlightAware Transoceanic
09:56AM 43.3963 -166.9935 81° East 570 656 39,000  Level FlightAware Transoceanic
09:57AM 43.4273 -166.6674 81° East 579 666 39,000  Level FlightAware Transoceanic
09:58AM 43.4526 -166.4474 81° East 579 666 39,000  Level FlightAware Transoceanic
09:59AM 43.4775 -166.2272 81° East 579 666 39,000  Level FlightAware Transoceanic
10:00AM 43.5019 -166.0069 81° East 579 666 39,000  Level FlightAware Transoceanic
10:01AM 43.5259 -165.7863 82° East 579 666 39,000  Level FlightAware Transoceanic
10:02AM 43.5495 -165.5656 82° East 579 666 39,000  Level FlightAware Transoceanic
10:03AM 43.5727 -165.3448 82° East 579 666 39,000  Level FlightAware Transoceanic
10:04AM 43.5955 -165.1237 82° East 579 666 39,000  Level FlightAware Transoceanic
10:05AM 43.6178 -164.9025 82° East 579 666 39,000  Level FlightAware Transoceanic
10:05AM 43.6167 -164.9667 82° East 580 667 39,000  Level Oakland Oceanic (ODAPS)
10:06AM 43.6397 -164.6811 82° East 579 666 39,000  Level FlightAware Transoceanic
10:07AM 43.6612 -164.4596 82° East 579 666 39,000  Level FlightAware Transoceanic
10:08AM 43.6822 -164.2379 83° East 579 666 39,000  Level FlightAware Transoceanic
10:09AM 43.7028 -164.0161 83° East 579 666 39,000  Level FlightAware Transoceanic
10:10AM 43.7230 -163.7941 83° East 579 666 39,000  Level FlightAware Transoceanic
10:11AM 43.7425 -163.6187 83° East 580 667 39,000  Level FlightAware Transoceanic
10:12AM 43.7619 -163.3935 83° East 580 667 39,000  Level FlightAware Transoceanic
10:13AM 43.7809 -163.1682 83° East 580 667 39,000  Level FlightAware Transoceanic
10:14AM 43.7995 -162.9427 84° East 580 667 39,000  Level FlightAware Transoceanic
10:15AM 43.8176 -162.7171 84° East 580 667 39,000  Level FlightAware Transoceanic
10:16AM 43.8352 -162.4913 84° East 580 667 39,000  Level FlightAware Transoceanic
10:17AM 43.8524 -162.2654 84° East 580 667 39,000  Level FlightAware Transoceanic
10:18AM 43.8692 -162.0394 84° East 580 667 39,000  Level FlightAware Transoceanic
10:18AM 43.8833 -161.9000 84° East 583 671 39,000  Level Oakland Oceanic (ODAPS)
10:19AM 43.8855 -161.8133 84° East 580 667 39,000  Level FlightAware Transoceanic
10:20AM 43.9014 -161.5870 85° East 580 667 39,000  Level FlightAware Transoceanic
10:21AM 43.9168 -161.3606 85° East 580 667 39,000  Level FlightAware Transoceanic
10:22AM 43.9318 -161.1341 85° East 580 667 39,000  Level FlightAware Transoceanic
10:23AM 43.9464 -160.9075 85° East 580 667 39,000  Level FlightAware Transoceanic
10:24AM 43.9604 -160.6808 85° East 580 667 39,000  Level FlightAware Transoceanic
10:25AM 43.9738 -160.4757 85° East 583 671 39,000  Level FlightAware Transoceanic
10:26AM 43.9871 -160.2379 86° East 583 671 39,000  Level FlightAware Transoceanic
10:27AM 44.0000 -160.0000 87° East 583 671 39,000  Level FlightAware Transoceanic
10:27AM 44.0000 -160.0000 87° East 585 673 39,000  Level Oakland Oceanic (ODAPS)
10:28AM 44.0093 -159.7831 87° East 583 671 39,000  Level FlightAware Transoceanic
10:29AM 44.0181 -159.5661 87° East 583 671 39,000  Level FlightAware Transoceanic
10:30AM 44.0266 -159.3491 87° East 583 671 39,000  Level FlightAware Transoceanic
10:31AM 44.0346 -159.1320 87° East 583 671 39,000  Level FlightAware Transoceanic
10:32AM 44.0423 -158.9149 87° East 583 671 39,000  Level FlightAware Transoceanic
10:32AM 44.0500 -158.7833 87° East 588 677 39,000  Level Oakland Oceanic (ODAPS)
10:33AM 44.0504 -158.6687 87° East 585 673 39,000  Level FlightAware Transoceanic
10:34AM 44.0573 -158.4467 88° East 585 673 39,000  Level FlightAware Transoceanic
10:35AM 44.0638 -158.2245 88° East 585 673 39,000  Level FlightAware Transoceanic
10:36AM 44.0698 -158.0024 88° East 585 673 39,000  Level FlightAware Transoceanic
10:37AM 44.0754 -157.7801 88° East 585 673 39,000  Level FlightAware Transoceanic
10:38AM 44.0806 -157.5579 88° East 585 673 39,000  Level FlightAware Transoceanic
10:39AM 44.0869 -157.3970 88° East 588 677 39,000  Level FlightAware Transoceanic
10:40AM 44.0914 -157.1658 89° East 588 677 39,000  Level FlightAware Transoceanic
10:41AM 44.0955 -156.9346 89° East 588 677 39,000  Level FlightAware Transoceanic
10:42AM 44.0990 -156.7033 89° East 588 677 39,000  Level FlightAware Transoceanic
10:43AM 44.1021 -156.4720 89° East 588 677 39,000  Level FlightAware Transoceanic
10:44AM 44.1048 -156.2407 89° East 588 677 39,000  Level FlightAware Transoceanic
10:45AM 44.1070 -156.0094 89° East 588 677 39,000  Level FlightAware Transoceanic
10:46AM 44.1087 -155.7780 89° East 588 677 39,000  Level FlightAware Transoceanic
10:46AM 44.1000 -155.6333 89° East 584 672 39,000  Level Oakland Oceanic (ODAPS)
10:47AM 44.1100 -155.5467 90° East 588 677 39,000  Level FlightAware Transoceanic
10:48AM 44.1107 -155.3153 90° East 588 677 39,000  Level FlightAware Transoceanic
10:49AM 44.1110 -155.0839 90° East 588 677 39,000  Level FlightAware Transoceanic
10:50AM 44.1109 -154.8526 90° East 588 677 39,000  Level FlightAware Transoceanic
10:51AM 44.1103 -154.6212 90° East 588 677 39,000  Level FlightAware Transoceanic
10:52AM 44.1092 -154.3898 90° East 588 677 39,000  Level FlightAware Transoceanic
10:53AM 44.1003 -154.1152 91° East 584 672 39,000  Level FlightAware Transoceanic
10:54AM 44.0987 -153.8983 91° East 584 672 39,000  Level FlightAware Transoceanic
10:55AM 44.0967 -153.6815 91° East 584 672 39,000  Level FlightAware Transoceanic
10:56AM 44.0943 -153.4646 91° East 584 672 39,000  Level FlightAware Transoceanic
10:57AM 44.0915 -153.2478 91° East 584 672 39,000  Level FlightAware Transoceanic
10:58AM 44.0883 -153.0311 91° East 584 672 39,000  Level FlightAware Transoceanic
10:59AM 44.0846 -152.8143 91° East 584 672 39,000  Level FlightAware Transoceanic
11:00AM 44.0806 -152.5975 92° East 584 672 39,000  Level FlightAware Transoceanic
11:00AM 44.0833 -152.5333 92° East 575 662 39,000  Level Oakland Oceanic (ODAPS)
11:01AM 44.0761 -152.3808 92° East 584 672 39,000  Level FlightAware Transoceanic
11:02AM 44.0712 -152.1642 92° East 584 672 39,000  Level FlightAware Transoceanic
11:03AM 44.0659 -151.9475 92° East 584 672 39,000  Level FlightAware Transoceanic
11:04AM 44.0602 -151.7310 92° East 584 672 39,000  Level FlightAware Transoceanic
11:05AM 44.0541 -151.5144 92° East 584 672 39,000  Level FlightAware Transoceanic
11:06AM 44.0487 -151.2658 93° East 575 662 39,000  Level FlightAware Transoceanic
11:07AM 44.0415 -151.0547 93° East 575 662 39,000  Level FlightAware Transoceanic
11:08AM 44.0340 -150.8436 93° East 575 662 39,000  Level FlightAware Transoceanic
11:09AM 44.0261 -150.6326 93° East 575 662 39,000  Level FlightAware Transoceanic
11:10AM 44.0178 -150.4217 93° East 575 662 39,000  Level FlightAware Transoceanic
11:11AM 44.0091 -150.2108 93° East 575 662 39,000  Level FlightAware Transoceanic
11:12AM 44.0000 -150.0000 94° East 575 662 39,000  Level FlightAware Transoceanic
11:12AM 44.0000 -150.0000 94° East 557 641 39,000  Level Oakland Oceanic (ODAPS)
11:13AM 43.9882 -149.7887 95° East 575 662 39,000  Level FlightAware Transoceanic
11:14AM 43.9759 -149.5775 95° East 575 662 39,000  Level FlightAware Transoceanic
11:14AM 43.9667 -149.5000 95° East 555 639 39,000  Level Oakland Oceanic (ODAPS)
11:15AM 43.9633 -149.3665 95° East 575 662 39,000  Level FlightAware Transoceanic
11:16AM 43.9503 -149.1554 95° East 575 662 39,000  Level FlightAware Transoceanic
11:17AM 43.9369 -148.9445 95° East 575 662 39,000  Level FlightAware Transoceanic
11:18AM 43.9213 -148.7068 95° East 557 641 39,000  Level FlightAware Transoceanic
11:19AM 43.9068 -148.4916 95° East 557 641 39,000  Level FlightAware Transoceanic
11:20AM 43.8836 -148.2174 96° East 555 639 39,000  Level FlightAware Transoceanic
11:21AM 43.8684 -148.0040 96° East 555 639 39,000  Level FlightAware Transoceanic
11:22AM 43.8527 -147.7907 96° East 555 639 39,000  Level FlightAware Transoceanic
11:23AM 43.8367 -147.5775 96° East 555 639 39,000  Level FlightAware Transoceanic
11:24AM 43.8203 -147.3644 96° East 555 639 39,000  Level FlightAware Transoceanic
11:25AM 43.8035 -147.1515 96° East 555 639 39,000  Level FlightAware Transoceanic
11:26AM 43.7863 -146.9386 96° East 555 639 39,000  Level FlightAware Transoceanic
11:27AM 43.7687 -146.7259 97° East 555 639 39,000  Level FlightAware Transoceanic
11:28AM 43.7506 -146.5134 97° East 555 639 39,000 780 Level FlightAware Transoceanic
11:28AM 43.7500 -146.5667 97° East 553 636 40,000  Climbing Oakland Oceanic (ODAPS)
11:29AM 43.7322 -146.3009 97° East 555 639 39,000 -600 Descending FlightAware Transoceanic
11:30AM 43.7135 -146.0886 97° East 555 639 39,000  Level FlightAware Transoceanic
11:31AM 43.6943 -145.8764 97° East 555 639 39,000  Level FlightAware Transoceanic
11:32AM 43.6747 -145.6644 97° East 555 639 39,000  Level FlightAware Transoceanic
11:33AM 43.6547 -145.4525 97° East 555 639 39,000 480 Level FlightAware Transoceanic
11:34AM 43.6382 -145.3236 98° East 553 636 40,000 480 Climbing FlightAware Transoceanic
11:35AM 43.6182 -145.1169 98° East 553 636 40,000  Level FlightAware Transoceanic
11:36AM 43.5979 -144.9103 98° East 553 636 40,000  Level FlightAware Transoceanic
11:37AM 43.5772 -144.7039 98° East 553 636 40,000  Level FlightAware Transoceanic
11:38AM 43.5561 -144.4976 98° East 553 636 40,000  Level FlightAware Transoceanic
11:39AM 43.5347 -144.2915 98° East 553 636 40,000  Level FlightAware Transoceanic
11:40AM 43.5129 -144.0855 98° East 553 636 40,000  Level FlightAware Transoceanic
11:41AM 43.4907 -143.8796 99° East 553 636 40,000  Level FlightAware Transoceanic
11:42AM 43.4682 -143.6739 99° East 553 636 40,000  Level FlightAware Transoceanic
11:42AM 43.4667 -143.6833 99° East 546 628 40,000  Level Oakland Oceanic (ODAPS)
11:43AM 43.4453 -143.4684 99° East 553 636 40,000  Level FlightAware Transoceanic
11:44AM 43.4220 -143.2630 99° East 553 636 40,000  Level FlightAware Transoceanic
11:45AM 43.3983 -143.0578 99° East 553 636 40,000  Level FlightAware Transoceanic
11:46AM 43.3743 -142.8527 99° East 553 636 40,000  Level FlightAware Transoceanic
11:47AM 43.3499 -142.6478 99° East 553 636 40,000  Level FlightAware Transoceanic
11:48AM 43.3243 -142.4494 99° East 546 628 40,000  Level FlightAware Transoceanic
11:49AM 43.2993 -142.2443 100° East 546 628 40,000  Level FlightAware Transoceanic
11:50AM 43.2739 -142.0394 100° East 546 628 40,000  Level FlightAware Transoceanic
11:51AM 43.2481 -141.8346 100° East 546 628 40,000  Level FlightAware Transoceanic
11:52AM 43.2220 -141.6300 100° East 546 628 40,000  Level FlightAware Transoceanic
11:53AM 43.1955 -141.4256 100° East 546 628 40,000  Level FlightAware Transoceanic
11:54AM 43.1687 -141.2214 100° East 546 628 40,000  Level FlightAware Transoceanic
11:55AM 43.1415 -141.0174 100° East 546 628 40,000  Level FlightAware Transoceanic
11:55AM 43.1167 -140.8833 100° East 547 629 40,000  Level Oakland Oceanic (ODAPS)
11:56AM 43.1139 -140.8135 101° East 546 628 40,000  Level FlightAware Transoceanic
11:57AM 43.0860 -140.6099 101° East 546 628 40,000  Level FlightAware Transoceanic
11:58AM 43.0577 -140.4064 101° East 546 628 40,000  Level FlightAware Transoceanic
11:59AM 43.0290 -140.2031 101° East 546 628 40,000  Level FlightAware Transoceanic
12:00PM 43.0000 -140.0000 108° East 546 628 40,000  Level FlightAware Transoceanic
12:00PM 43.0000 -140.0000 108° East 533 613 40,000  Level Oakland Oceanic (ODAPS)
12:01PM 42.9543 -139.8134 109° East 546 628 40,000  Level FlightAware Transoceanic
12:02PM 42.9082 -139.6271 109° East 547 629 40,000  Level FlightAware Transoceanic
12:03PM 42.8619 -139.4411 109° East 547 629 40,000  Level FlightAware Transoceanic
12:04PM 42.8153 -139.2554 109° East 547 629 40,000  Level FlightAware Transoceanic
12:05PM 42.7683 -139.0699 109° East 547 629 40,000  Level FlightAware Transoceanic
12:06PM 42.7159 -138.8646 109° East 533 613 40,000  Level FlightAware Transoceanic
12:07PM 42.6675 -138.6764 109° East 533 613 40,000  Level FlightAware Transoceanic
12:08PM 42.6188 -138.4884 109° East 533 613 40,000  Level FlightAware Transoceanic
12:09PM 42.5697 -138.3008 110° East 533 613 40,000  Level FlightAware Transoceanic
12:09PM 42.5333 -138.2000 110° East 529 609 40,000  Level Oakland Oceanic (ODAPS)
12:10PM 42.5204 -138.1135 110° East 533 613 40,000  Level FlightAware Transoceanic
12:11PM 42.4707 -137.9265 110° East 533 613 40,000  Level FlightAware Transoceanic
12:12PM 42.4208 -137.7397 110° East 533 613 40,000  Level FlightAware Transoceanic
12:13PM 42.3705 -137.5533 110° East 533 613 40,000  Level FlightAware Transoceanic
12:14PM 42.3200 -137.3671 110° East 533 613 40,000  Level FlightAware Transoceanic
12:15PM 42.2691 -137.1813 110° East 533 613 40,000  Level FlightAware Transoceanic
12:16PM 42.2299 -137.0702 110° East 529 609 40,000  Level FlightAware Transoceanic
12:17PM 42.1782 -136.8829 110° East 529 609 40,000  Level FlightAware Transoceanic
12:18PM 42.1263 -136.6960 111° Southeast 529 609 40,000  Level FlightAware Transoceanic
12:19PM 42.0740 -136.5094 111° Southeast 529 609 40,000  Level FlightAware Transoceanic
12:20PM 42.0215 -136.3230 111° Southeast 529 609 40,000  Level FlightAware Transoceanic
12:21PM 41.9686 -136.1370 111° Southeast 529 609 40,000  Level FlightAware Transoceanic
12:22PM 41.9154 -135.9513 111° Southeast 529 609 40,000  Level FlightAware Transoceanic
12:23PM 41.8620 -135.7659 111° Southeast 529 609 40,000  Level FlightAware Transoceanic
12:23PM 41.8167 -135.6167 111° Southeast 527 606 40,000  Level Oakland Oceanic (ODAPS)
12:24PM 41.8082 -135.5809 111° Southeast 529 609 40,000  Level FlightAware Transoceanic
12:25PM 41.7542 -135.3961 111° Southeast 529 609 40,000  Level FlightAware Transoceanic
12:26PM 41.6998 -135.2117 112° Southeast 529 609 40,000  Level FlightAware Transoceanic
12:27PM 41.6452 -135.0275 112° Southeast 529 609 40,000  Level FlightAware Transoceanic
12:28PM 41.5902 -134.8437 112° Southeast 529 609 40,000  Level FlightAware Transoceanic
12:29PM 41.5423 -134.6899 112° Southeast 527 606 40,000  Level FlightAware Transoceanic
12:30PM 41.4866 -134.5056 112° Southeast 527 606 40,000  Level FlightAware Transoceanic
12:31PM 41.4305 -134.3215 112° Southeast 527 606 40,000  Level FlightAware Transoceanic
12:32PM 41.3742 -134.1377 112° Southeast 527 606 40,000  Level FlightAware Transoceanic
12:33PM 41.3176 -133.9543 112° Southeast 527 606 40,000  Level FlightAware Transoceanic
12:34PM 41.2606 -133.7712 113° Southeast 527 606 40,000  Level FlightAware Transoceanic
12:35PM 41.2034 -133.5884 113° Southeast 527 606 40,000  Level FlightAware Transoceanic
12:36PM 41.1459 -133.4059 113° Southeast 527 606 40,000  Level FlightAware Transoceanic
12:37PM 41.0881 -133.2237 113° Southeast 527 606 40,000  Level FlightAware Transoceanic
12:37PM 41.0667 -133.1167 113° Southeast 523 602 40,000  Level Oakland Oceanic (ODAPS)
12:38PM 41.0300 -133.0419 113° Southeast 527 606 40,000  Level FlightAware Transoceanic
12:39PM 40.9717 -132.8604 113° Southeast 527 606 40,000  Level FlightAware Transoceanic
12:40PM 40.9131 -132.6792 113° Southeast 527 606 40,000  Level FlightAware Transoceanic
12:41PM 40.8541 -132.4983 113° Southeast 527 606 40,000  Level FlightAware Transoceanic
12:42PM 40.7949 -132.3177 113° Southeast 527 606 40,000  Level FlightAware Transoceanic
12:43PM 40.7354 -132.1375 114° Southeast 527 606 40,000  Level FlightAware Transoceanic
12:44PM 40.6618 -131.8928 114° Southeast 523 602 40,000  Level FlightAware Transoceanic
12:45PM 40.6029 -131.7192 114° Southeast 523 602 40,000  Level FlightAware Transoceanic
12:46PM 40.5438 -131.5459 114° Southeast 523 602 40,000  Level FlightAware Transoceanic
12:47PM 40.4844 -131.3729 114° Southeast 523 602 40,000  Level FlightAware Transoceanic
12:48PM 40.4247 -131.2002 114° Southeast 523 602 40,000  Level FlightAware Transoceanic
12:49PM 40.3648 -131.0279 115° Southeast 523 602 40,000  Level FlightAware Transoceanic
12:50PM 40.3046 -130.8558 115° Southeast 523 602 40,000  Level FlightAware Transoceanic
12:51PM 40.2442 -130.6840 115° Southeast 523 602 40,000  Level FlightAware Transoceanic
12:51PM 40.2500 -130.7167 114° Southeast 519 597 40,000  Level Oakland Oceanic (ODAPS)
12:52PM 40.1836 -130.5125 115° Southeast 523 602 40,000  Level FlightAware Transoceanic
12:53PM 40.1226 -130.3414 115° Southeast 523 602 40,000  Level FlightAware Transoceanic
12:54PM 40.0614 -130.1705 115° Southeast 523 602 40,000  Level FlightAware Transoceanic
12:55PM 40.0000 -130.0000 122° Southeast 523 602 40,000  Level FlightAware Transoceanic
12:55PM 40.0000 -130.0000 122° Southeast 518 596 40,000  Level Oakland Oceanic (ODAPS)
12:56PM 39.9252 -129.8469 123° Southeast 523 602 40,000  Level FlightAware Transoceanic
12:57PM 39.8502 -129.6941 123° Southeast 519 597 40,000  Level FlightAware Transoceanic
12:58PM 39.7750 -129.5416 123° Southeast 519 597 40,000  Level FlightAware Transoceanic
12:59PM 39.6996 -129.3895 123° Southeast 519 597 40,000  Level FlightAware Transoceanic
01:00PM 39.6239 -129.2377 123° Southeast 519 597 40,000  Level FlightAware Transoceanic
01:01PM 39.5481 -129.0862 123° Southeast 519 597 40,000  Level FlightAware Transoceanic
01:02PM 39.5242 -129.0384 123° Southeast 518 596 40,000  Level FlightAware Transoceanic
01:03PM 39.4441 -128.8795 123° Southeast 518 596 40,000  Level FlightAware Transoceanic
01:04PM 39.3638 -128.7208 123° Southeast 518 596 40,000  Level FlightAware Transoceanic
01:05PM 39.2833 -128.5626 123° Southeast 518 596 40,000  Level FlightAware Transoceanic
01:05PM 39.2500 -128.4833 124° Southeast 518 596 40,000  Level Oakland Oceanic (ODAPS)
01:06PM 39.2026 -128.4047 123° Southeast 518 596 40,000  Level FlightAware Transoceanic
01:07PM 39.1216 -128.2472 124° Southeast 518 596 40,000  Level FlightAware Transoceanic
01:08PM 39.0405 -128.0900 124° Southeast 518 596 40,000  Level FlightAware Transoceanic
01:09PM 38.9591 -127.9332 124° Southeast 518 596 40,000  Level FlightAware Transoceanic
01:10PM 38.8776 -127.7768 124° Southeast 518 596 40,000  Level FlightAware Transoceanic
01:11PM 38.7822 -127.5894 124° Southeast 518 596 40,000  Level FlightAware Transoceanic
01:12PM 38.7036 -127.4416 124° Southeast 518 596 40,000  Level FlightAware Transoceanic
01:12PM 38.6881 -127.4133 111° Southeast 514 592 40,000  Level Oakland Center
01:13PM 38.6248 -127.2941 124° Southeast 518 596 40,000  Level FlightAware Transoceanic
01:14PM 38.5458 -127.1469 125° Southeast 518 596 40,000  Level FlightAware Transoceanic
01:15PM 38.4667 -127.0000 111° Southeast 518 596 40,000  Level FlightAware Transoceanic
01:16PM 38.4158 -126.8324 111° Southeast 518 596 40,000  Level FlightAware Transoceanic
01:17PM 38.3646 -126.6650 111° Southeast 518 596 40,000  Level FlightAware Transoceanic
01:18PM 38.3040 -126.5110 111° Southeast 500 575 40,000  Level FlightAware
01:18PM 38.2750 -126.4340 116° Southeast 500 575 40,000  Level FlightAware
01:19PM 38.2450 -126.3530 115° Southeast 500 575 40,000  Level FlightAware
01:19PM 38.2000 -126.2330 115° Southeast 505 581 40,000  Level FlightAware
01:20PM 38.1700 -126.1500 115° Southeast 504 580 40,000  Level FlightAware
01:20PM 38.1320 -126.0500 116° Southeast 505 581 40,000  Level FlightAware
01:21PM 38.0920 -125.9440 116° Southeast 505 581 40,000  Level FlightAware
01:22PM 38.0610 -125.8600 115° Southeast 503 579 40,000  Level FlightAware
01:22PM 38.0270 -125.7700 116° Southeast 505 581 40,000  Level FlightAware
01:23PM 37.9920 -125.6770 116° Southeast 503 579 40,000  Level FlightAware
01:23PM 37.9550 -125.5810 116° Southeast 495 570 40,000  Level FlightAware
01:24PM 37.9140 -125.4720 115° Southeast 490 564 40,000  Level FlightAware
01:25PM 37.8800 -125.3830 116° Southeast 489 563 40,000  Level FlightAware
01:25PM 37.8420 -125.2830 116° Southeast 487 560 40,000  Level FlightAware
01:26PM 37.8070 -125.1910 116° Southeast 487 560 40,000  Level FlightAware
01:27PM 37.7680 -125.0880 116° Southeast 491 565 40,000 240 Level FlightAware
01:27PM 37.7350 -125.0010 116° Southeast 491 565 40,300 780 Climbing FlightAware
01:28PM 37.7020 -124.9150 116° Southeast 486 559 40,900 600 Climbing FlightAware
01:28PM 37.6660 -124.8220 116° Southeast 483 556 41,000 60 Climbing FlightAware
01:29PM 37.6310 -124.7330 116° Southeast 484 557 41,000  Level FlightAware
01:29PM 37.5950 -124.6400 116° Southeast 483 556 41,000  Level FlightAware
01:30PM 37.5640 -124.5590 116° Southeast 482 555 41,000  Level FlightAware
01:31PM 37.5290 -124.4690 116° Southeast 479 551 41,000  Level FlightAware
01:31PM 37.4930 -124.3790 117° Southeast 478 550 41,000  Level FlightAware
01:32PM 37.4620 -124.2990 116° Southeast 475 547 41,000  Level FlightAware
01:32PM 37.4270 -124.2090 116° Southeast 476 548 41,000  Level FlightAware
01:33PM 37.3920 -124.1220 117° Southeast 478 550 41,000  Level FlightAware
01:34PM 37.3570 -124.0330 116° Southeast 479 551 41,000  Level FlightAware
01:34PM 37.3210 -123.9430 117° Southeast 481 554 41,000  Level FlightAware
01:35PM 37.2890 -123.8610 116° Southeast 484 557 41,000  Level FlightAware
01:35PM 37.2530 -123.7700 116° Southeast 485 558 41,000  Level FlightAware
01:36PM 37.2180 -123.6820 117° Southeast 487 560 41,000  Level FlightAware
01:36PM 37.1820 -123.5930 117° Southeast 488 562 41,000  Level FlightAware
01:37PM 37.1500 -123.5150 117° Southeast 488 562 41,000  Level FlightAware
01:38PM 37.1110 -123.4170 116° Southeast 487 560 41,000  Level FlightAware
01:38PM 37.0750 -123.3270 117° Southeast 487 560 41,000  Level FlightAware
01:39PM 37.0400 -123.2420 117° Southeast 487 560 41,000  Level FlightAware
01:39PM 37.0017 -123.1470 117° Southeast 487 560 41,000  Level FlightAware ADS-B
01:40PM 36.9700 -123.0700 117° Southeast 494 568 41,000  Level FlightAware ADS-B
01:41PM 36.9230 -122.9540 117° Southeast 492 566 41,000  Level FlightAware
01:41PM 36.8890 -122.8710 117° Southeast 489 563 41,000  Level FlightAware
01:42PM 36.8530 -122.7830 117° Southeast 485 558 41,000  Level FlightAware
01:42PM 36.8150 -122.6920 118° Southeast 485 558 41,000  Level FlightAware
01:43PM 36.7800 -122.6080 117° Southeast 483 556 41,000  Level FlightAware
01:44PM 36.7460 -122.5250 117° Southeast 481 554 41,000  Level FlightAware
01:44PM 36.7140 -122.4470 117° Southeast 479 551 41,000  Level FlightAware
01:45PM 36.6740 -122.3520 118° Southeast 467 537 41,000  Level FlightAware
01:45PM 36.6474 -122.2880 117° Southeast 462 532 41,000  Level FlightAware ADS-B
01:46PM 36.6174 -122.2170 118° Southeast 458 527 41,000  Level FlightAware ADS-B
01:46PM 36.5812 -122.1300 117° Southeast 454 522 41,000  Level FlightAware ADS-B
01:47PM 36.5400 -122.0320 118° Southeast 449 517 41,000  Level FlightAware
01:48PM 36.5040 -121.9470 118° Southeast 450 518 41,000  Level FlightAware
01:48PM 36.4650 -121.8540 118° Southeast 449 517 41,000  Level FlightAware
01:49PM 36.4299 -121.7720 118° Southeast 450 518 41,000  Level FlightAware ADS-B
01:50PM 36.3940 -121.6870 118° Southeast 449 517 41,000  Level FlightAware
01:50PM 36.3610 -121.6100 118° Southeast 452 520 41,000  Level FlightAware
01:51PM 36.3290 -121.5360 118° Southeast 452 520 41,000  Level FlightAware
01:51PM 36.2930 -121.4500 117° Southeast 449 517 41,000  Level FlightAware
01:52PM 36.2600 -121.3750 119° Southeast 446 513 41,000  Level FlightAware
01:52PM 36.2270 -121.2990 118° Southeast 446 513 41,000  Level FlightAware
01:53PM 36.1910 -121.2150 118° Southeast 446 513 41,000  Level FlightAware
01:54PM 36.1630 -121.1490 118° Southeast 445 512 41,000  Level FlightAware
01:54PM 36.1500 -121.1040 110° East 449 517 41,000  Level FlightAware
01:54PM 36.1430 -121.0210 96° East 455 524 41,000  Level FlightAware
01:55PM 36.1420 -120.9200 91° East 458 527 41,000  Level FlightAware
01:56PM 36.1420 -120.8250 90° East 461 531 41,000  Level FlightAware
01:56PM 36.1420 -120.7410 90° East 461 531 41,000  Level FlightAware
01:57PM 36.1430 -120.6410 89° East 460 529 41,000  Level FlightAware
01:57PM 36.1430 -120.5590 90° East 461 531 41,000  Level FlightAware
01:58PM 36.1340 -120.4610 96° East 451 519 41,000  Level FlightAware
01:58PM 36.1070 -120.4060 121° Southeast 439 505 41,000  Level FlightAware
01:59PM 36.0828 -120.3810 140° Southeast 445 512 41,000  Level FlightAware ADS-B
02:00PM 35.9950 -120.2990 143° Southeast 436 502 41,000  Level FlightAware
02:00PM 35.9380 -120.2460 143° Southeast 435 501 41,000  Level FlightAware
02:01PM 35.8820 -120.1940 143° Southeast 434 499 41,000  Level FlightAware
02:01PM 35.8290 -120.1460 144° Southeast 435 501 41,000  Level FlightAware
02:02PM 35.7670 -120.0880 143° Southeast 435 501 41,000  Level FlightAware
02:02PM 35.7160 -120.0420 144° Southeast 434 499 41,000  Level FlightAware
02:03PM 35.6570 -119.9880 143° Southeast 432 497 41,000  Level FlightAware
02:04PM 35.6020 -119.9390 144° Southeast 428 493 41,000 -300 Level FlightAware
02:04PM 35.5480 -119.8930 145° Southeast 419 482 40,700 -1,500 Descending FlightAware
02:05PM 35.4760 -119.8310 145° Southeast 426 490 39,100 -1,980 Descending FlightAware
02:05PM 35.4230 -119.7850 145° Southeast 406 467 38,200 -2,160 Descending FlightAware
02:06PM 35.3670 -119.7400 147° Southeast 400 460 36,600 -3,180 Descending FlightAware
02:06PM 35.3270 -119.7220 160° South 405 466 35,000 -2,820 Descending FlightAware
02:07PM 35.2620 -119.7230 181° South 399 459 33,900 -1,800 Descending FlightAware
02:08PM 35.1970 -119.7370 190° South 391 450 32,900 -1,800 Descending FlightAware
02:08PM 35.1290 -119.7460 186° South 385 443 31,600 -2,040 Descending FlightAware
02:08PM 35.1050 -119.7380 165° South 388 447 31,200 -2,040 Descending FlightAware
02:09PM 35.0750 -119.7110 144° Southeast 395 455 30,600 -1,620 Descending FlightAware
02:09PM 35.0330 -119.6630 137° Southeast 388 447 29,700 -1,680 Descending FlightAware
02:10PM 34.9900 -119.6120 136° Southeast 386 444 28,800 -1,680 Descending FlightAware
02:11PM 34.9220 -119.5330 136° Southeast 381 438 27,500 -1,380 Descending FlightAware
02:11PM 34.8900 -119.4950 136° Southeast 384 442 26,900 -1,380 Descending FlightAware
02:12PM 34.8330 -119.4300 137° Southeast 379 436 25,900 -1,620 Descending FlightAware
02:13PM 34.7850 -119.3740 136° Southeast 374 430 24,900 -1,560 Descending FlightAware
02:13PM 34.7440 -119.3270 137° Southeast 364 419 24,000 -1,620 Descending FlightAware
02:14PM 34.7070 -119.2840 136° Southeast 357 411 23,200 -1,680 Descending FlightAware
02:14PM 34.6470 -119.2140 136° Southeast 356 410 21,900 -1,680 Descending FlightAware
02:15PM 34.6060 -119.1670 137° Southeast 350 403 21,000 -1,500 Descending FlightAware
02:16PM 34.5620 -119.1170 137° Southeast 343 395 20,100 -1,500 Descending FlightAware
02:16PM 34.5270 -119.0760 136° Southeast 339 390 19,300 -1,560 Descending FlightAware
02:17PM 34.4840 -119.0270 137° Southeast 333 383 18,300 -1,500 Descending FlightAware
02:17PM 34.4560 -118.9950 137° Southeast 333 383 17,700 -1,500 Descending FlightAware
02:18PM 34.4080 -118.9400 137° Southeast 329 379 16,600 -1,560 Descending FlightAware
02:19PM 34.3610 -118.8900 139° Southeast 316 364 15,500 -1,500 Descending FlightAware
02:19PM 34.3310 -118.8720 154° Southeast 310 357 15,000 -1,560 Descending FlightAware
02:20PM 34.2820 -118.8540 163° South 307 353 14,100 -1,500 Descending FlightAware
02:20PM 34.2350 -118.8360 162° South 305 351 13,300 -1,500 Descending FlightAware
02:21PM 34.1920 -118.8210 164° South 301 346 12,500 -1,320 Descending FlightAware
02:21PM 34.1400 -118.8020 163° South 304 350 11,800 -960 Descending FlightAware
02:22PM 34.0960 -118.7850 162° South 303 349 11,300 -720 Descending FlightAware
02:22PM 34.0630 -118.7710 161° South 280 322 11,100 -600 Descending FlightAware
02:23PM 34.0460 -118.7530 139° Southeast 283 326 10,900 -1,020 Descending FlightAware
02:23PM 34.0360 -118.7300 118° Southeast 286 329 10,600 -900 Descending FlightAware
02:24PM 34.0300 -118.6690 97° East 279 321 10,100 -540 Descending FlightAware
02:24PM 34.0260 -118.6240 96° East 254 292 10,000 -420 Descending FlightAware
02:25PM 34.0220 -118.5840 97° East 241 277 9,700 -840 Descending FlightAware
02:25PM 34.0200 -118.5620 96° East 239 275 9,400 -1,020 Descending FlightAware
02:25PM 34.0180 -118.5350 95° East 239 275 9,100 -1,080 Descending FlightAware
02:26PM 34.0150 -118.5060 97° East 235 270 8,600 -1,380 Descending FlightAware
02:26PM 34.0130 -118.4820 96° East 233 268 8,200 -1,500 Descending FlightAware
02:26PM 34.0110 -118.4570 96° East 233 268 7,700 -1,680 Descending FlightAware
02:26PM 34.0120 -118.4330 87° East 233 268 7,100 -1,800 Descending FlightAware
02:27PM 34.0140 -118.4160 82° East 232 267 6,800 -1,800 Descending FlightAware
02:27PM 34.0190 -118.3920 76° East 229 264 6,200 -1,980 Descending FlightAware
02:27PM 34.0230 -118.3710 77° East 227 261 5,500 -2,280 Descending FlightAware
02:28PM 34.0280 -118.3350 80° East 225 259 4,500 -2,100 Descending FlightAware
02:28PM 34.0310 -118.3170 79° East 224 258 4,000 -1,500 Descending FlightAware
02:28PM 34.0350 -118.2850 81° East 216 249 3,400 -1,320 Descending FlightAware
02:29PM 34.0380 -118.2630 81° East 216 249 3,000 -1,080 Descending FlightAware
02:29PM 34.0410 -118.2400 81° East 212 244 2,800 -600 Descending FlightAware
02:30PM 34.0440 -118.2080 84° East 187 215 2,600 -240 Descending FlightAware
02:30PM 34.0320 -118.1840 121° Southeast 187 215 2,600  Level FlightAware
02:30PM 34.0210 -118.1810 167° South 189 217 2,600 -180 Level FlightAware
02:31PM 33.9900 -118.1880 191° South 196 226 2,500 -300 Descending FlightAware
02:31PM 33.9830 -118.1980 230° Southwest 195 224 2,400 -420 Descending FlightAware
02:32PM 33.9700 -118.2260 241° Southwest 183 211 2,200 -240 Descending FlightAware
02:32PM 33.9670 -118.2530 262° West 189 217 2,200  Level FlightAware
02:32PM 33.9650 -118.2730 263° West 184 212 2,200 -540 Level FlightAware
02:33PM 33.9630 -118.2990 265° West 165 190 1,800 -900 Descending FlightAware
02:33PM 33.9610 -118.3180 263° West 160 184 1,500 -840 Descending FlightAware
02:34PM 33.9580 -118.3390 260° West 145 167 1,200 -720 Descending FlightAware
02:34PM 33.9570 -118.3540 265° West 141 162 1,000 -780 Descending FlightAware
02:34PM 33.9550 -118.3700 261° West 140 161 700 -900 Descending FlightAware
02:34PM 33.9540 -118.3810 264° West 140 161 500 -480 Descending FlightAware
02:35PM 33.9510 -118.4090 263° West 139 160 300 -300 Descending FlightAware